METAR Data
IDs: Format: Raw Decoded Include TAF

Data at: 0805 UTC 07 Apr 2020

KMSP 070753Z 12006KT 5SM BR SCT013 BKN047 OVC110 09/08 A2974 RMK AO2 RAB28E38 PRESFR SLP072 P0000 T00940078

KMSP 070759Z 0708/0812 14008KT 5SM BR VCSH SCT012 BKN045
  FM070900 VRB04KT 5SM BR VCSH BKN008
  TEMPO 0709/0712 3SM -TSRA BR SCT008 BKN020CB
  FM071200 VRB03KT 2SM BR OVC003
  FM071400 27005KT 4SM BR BKN007
  FM071600 29006KT P6SM BKN022
  FM071800 31008KT P6SM SCT060